createdAt,value
2023-05-09T00:02:36.402Z,42.50
2023-05-09T00:07:39.545Z,42.23
2023-05-09T00:12:44.141Z,42.41
2023-05-09T00:17:47.509Z,42.63
2023-05-09T00:22:50.721Z,43.02
2023-05-09T00:27:53.647Z,42.00
2023-05-09T00:32:56.786Z,42.03
2023-05-09T00:37:59.918Z,42.53
2023-05-09T00:43:03.236Z,42.72
2023-05-09T00:48:06.914Z,42.58
2023-05-09T00:53:10.874Z,42.01
2023-05-09T00:58:14.373Z,42.49
2023-05-09T01:03:18.062Z,42.69
2023-05-09T01:08:50.216Z,42.43
2023-05-09T01:14:07.020Z,41.94
2023-05-09T01:19:41.364Z,42.90
2023-05-09T01:25:06.269Z,42.87
2023-05-09T01:30:12.292Z,43.37
2023-05-09T01:35:17.441Z,42.99
2023-05-09T01:40:22.076Z,42.55
2023-05-09T01:45:27.275Z,43.08
2023-05-09T01:50:31.480Z,43.25
2023-05-09T01:55:37.211Z,42.88
2023-05-09T02:00:40.993Z,43.31
2023-05-09T02:05:45.467Z,42.70
2023-05-09T02:10:49.790Z,44.13
2023-05-09T02:15:53.703Z,43.02
2023-05-09T02:20:57.134Z,43.55
2023-05-09T02:26:00.620Z,43.14
2023-05-09T02:31:07.321Z,43.77
2023-05-09T02:36:10.747Z,43.40
2023-05-09T02:41:14.909Z,43.61
2023-05-09T02:46:18.029Z,43.79
2023-05-09T02:51:21.011Z,43.70
2023-05-09T02:56:24.044Z,43.31
2023-05-09T03:01:27.093Z,43.87
2023-05-09T03:06:30.230Z,43.90
2023-05-09T03:11:34.151Z,43.86
2023-05-09T03:16:37.794Z,44.22
2023-05-09T03:21:45.057Z,43.62
2023-05-09T03:26:48.202Z,43.37
2023-05-09T03:31:51.394Z,43.57
2023-05-09T03:36:54.480Z,43.52
2023-05-09T03:41:57.534Z,44.33
2023-05-09T03:47:01.360Z,43.51
2023-05-09T03:52:11.251Z,43.57
2023-05-09T03:57:14.937Z,43.12
2023-05-09T04:02:18.047Z,43.19
2023-05-09T04:07:22.530Z,43.19
2023-05-09T04:12:25.668Z,42.51
2023-05-09T04:17:29.078Z,42.56
2023-05-09T04:22:32.103Z,42.42
2023-05-09T04:27:35.320Z,42.40
2023-05-09T04:32:39.191Z,42.57
2023-05-09T04:37:43.242Z,41.87
2023-05-09T04:42:46.625Z,41.25
2023-05-09T04:47:49.800Z,40.64
2023-05-09T04:52:52.821Z,40.68
2023-05-09T04:57:56.769Z,40.28
2023-05-09T05:02:59.861Z,39.46
2023-05-09T05:08:04.610Z,39.17
2023-05-09T05:13:12.344Z,38.98
2023-05-09T05:18:19.084Z,38.74
2023-05-09T05:23:22.342Z,38.92
2023-05-09T05:28:28.996Z,39.13
2023-05-09T05:33:32.424Z,39.46
2023-05-09T05:38:36.259Z,39.51
2023-05-09T05:43:40.038Z,39.25
2023-05-09T05:48:43.739Z,38.97
2023-05-09T05:53:46.798Z,39.13
2023-05-09T05:58:50.017Z,39.42
2023-05-09T06:03:57.441Z,39.06
2023-05-09T06:09:03.640Z,38.59
2023-05-09T06:14:06.753Z,38.27
2023-05-09T06:19:10.025Z,37.98
2023-05-09T06:24:23.411Z,38.49
2023-05-09T06:29:30.915Z,37.61
2023-05-09T06:34:33.904Z,36.41
2023-05-09T06:39:39.653Z,36.26
2023-05-09T06:44:44.084Z,36.23
2023-05-09T06:49:47.129Z,34.93
2023-05-09T06:54:50.080Z,35.19
2023-05-09T06:59:53.095Z,35.13
2023-05-09T07:04:56.367Z,34.98
2023-05-09T07:10:10.385Z,33.62
2023-05-09T07:15:20.579Z,33.28
2023-05-09T07:20:28.858Z,33.64
2023-05-09T07:25:32.038Z,33.71
2023-05-09T07:30:35.130Z,33.09
2023-05-09T07:35:38.130Z,32.46
2023-05-09T07:40:41.528Z,31.47
2023-05-09T07:45:44.656Z,31.05
2023-05-09T07:50:47.630Z,31.23
2023-05-09T07:55:50.615Z,30.88
2023-05-09T08:00:56.637Z,29.95
2023-05-09T08:06:00.096Z,30.30
2023-05-09T08:11:03.181Z,30.01
2023-05-09T08:16:06.266Z,29.70
2023-05-09T08:21:09.408Z,30.17
2023-05-09T08:26:12.453Z,29.57
2023-05-09T08:31:15.877Z,29.40
2023-05-09T08:36:18.958Z,30.36
2023-05-09T08:41:28.277Z,29.85
2023-05-09T08:46:36.871Z,30.54
2023-05-09T08:51:40.671Z,29.90
2023-05-09T08:56:43.710Z,29.35
2023-05-09T09:01:46.979Z,29.96
2023-05-09T09:06:51.681Z,29.63
2023-05-09T09:11:55.799Z,29.30
2023-05-09T09:16:59.028Z,28.91
2023-05-09T09:22:05.329Z,28.80
2023-05-09T09:27:08.717Z,28.68
2023-05-09T09:32:11.705Z,28.41
2023-05-09T09:37:23.537Z,28.16
2023-05-09T09:42:26.635Z,28.43
2023-05-09T09:47:33.295Z,28.35
2023-05-09T09:52:36.459Z,29.38
2023-05-09T09:57:41.993Z,29.10
2023-05-09T10:03:03.495Z,29.25
2023-05-09T10:08:08.060Z,29.68
2023-05-09T10:13:12.768Z,28.97
2023-05-09T10:18:20.387Z,28.41
2023-05-09T10:23:24.555Z,28.83
2023-05-09T10:28:32.965Z,28.13
2023-05-09T10:33:43.874Z,29.50
2023-05-09T10:38:51.110Z,28.94
2023-05-09T10:43:57.341Z,28.93
2023-05-09T10:49:01.610Z,29.44
2023-05-09T10:54:14.470Z,29.58
2023-05-09T10:59:38.372Z,29.42
2023-05-09T11:04:41.592Z,29.86
2023-05-09T11:09:44.569Z,29.75
2023-05-09T11:14:49.409Z,29.77
2023-05-09T11:19:52.331Z,29.63
2023-05-09T11:25:04.955Z,29.86
2023-05-09T11:30:10.062Z,29.76
2023-05-09T11:35:15.833Z,29.49
2023-05-09T11:40:21.282Z,29.77
2023-05-09T11:45:27.252Z,29.85
2023-05-09T11:50:30.428Z,29.72
2023-05-09T11:55:38.410Z,30.28
2023-05-09T12:00:46.113Z,30.30
2023-05-09T12:05:49.420Z,29.99
2023-05-09T12:10:52.357Z,29.71
2023-05-09T12:16:01.511Z,30.10
2023-05-09T12:21:04.826Z,30.33
2023-05-09T12:26:07.954Z,30.38
2023-05-09T12:31:11.796Z,30.25
2023-05-09T12:36:16.333Z,31.01
2023-05-09T12:41:34.895Z,30.77
2023-05-09T12:46:42.571Z,30.36
2023-05-09T12:51:53.010Z,30.58
2023-05-09T12:56:57.829Z,30.90
2023-05-09T13:02:02.177Z,31.65
2023-05-09T13:07:10.538Z,31.23
2023-05-09T13:12:13.614Z,31.16
2023-05-09T13:17:16.965Z,31.33
2023-05-09T13:22:19.957Z,31.64
2023-05-09T13:27:23.131Z,32.12
2023-05-09T13:32:26.542Z,31.91
2023-05-09T13:37:29.564Z,32.22
2023-05-09T13:42:34.729Z,32.04
2023-05-09T13:47:39.037Z,32.48
2023-05-09T13:52:42.434Z,32.74
2023-05-09T13:57:45.451Z,32.51
2023-05-09T14:02:48.650Z,32.72
2023-05-09T14:07:51.897Z,32.89
2023-05-09T14:12:55.095Z,32.92
2023-05-09T14:17:58.374Z,32.75
2023-05-09T14:23:01.678Z,32.33
2023-05-09T14:28:04.955Z,32.76
2023-05-09T14:33:07.906Z,32.96
2023-05-09T14:38:12.773Z,33.15
2023-05-09T14:43:16.591Z,33.10
2023-05-09T14:48:19.799Z,33.00
2023-05-09T14:53:26.216Z,32.71
2023-05-09T14:58:32.132Z,33.56
2023-05-09T15:03:35.221Z,33.98
2023-05-09T15:08:39.517Z,34.31
2023-05-09T15:13:42.572Z,34.20
2023-05-09T15:18:46.397Z,34.39
2023-05-09T15:23:49.370Z,34.54
2023-05-09T15:28:52.446Z,33.99
2023-05-09T15:33:55.410Z,34.08
2023-05-09T15:38:58.686Z,34.64
2023-05-09T15:44:01.747Z,34.80
2023-05-09T15:49:04.780Z,34.79
2023-05-09T15:54:08.998Z,35.26
2023-05-09T15:59:11.964Z,35.17
2023-05-09T16:04:14.958Z,35.57
2023-05-09T16:09:17.970Z,35.47
2023-05-09T16:14:21.059Z,35.73
2023-05-09T16:19:24.166Z,35.67
2023-05-09T16:24:27.257Z,36.01
2023-05-09T16:29:30.286Z,36.01
2023-05-09T16:34:35.755Z,35.85
2023-05-09T16:39:38.774Z,36.67
2023-05-09T16:44:41.849Z,36.33
2023-05-09T16:49:44.820Z,36.48
2023-05-09T16:54:49.519Z,36.43
2023-05-09T16:59:53.725Z,36.56
2023-05-09T17:04:57.090Z,36.65
2023-05-09T17:10:00.228Z,36.85
2023-05-09T17:15:03.349Z,37.05
2023-05-09T17:20:10.287Z,37.21
2023-05-09T17:25:13.786Z,36.80
2023-05-09T17:30:17.551Z,36.90
2023-05-09T17:35:22.856Z,37.03
2023-05-09T17:40:25.981Z,36.83
2023-05-09T17:45:30.431Z,36.98
2023-05-09T17:50:34.757Z,36.85
2023-05-09T17:55:37.819Z,37.13
2023-05-09T18:00:41.253Z,37.15
2023-05-09T18:05:44.635Z,36.96
2023-05-09T18:10:47.793Z,36.76
2023-05-09T18:15:50.847Z,36.80
2023-05-09T18:20:54.140Z,36.76
2023-05-09T18:25:57.419Z,36.33
2023-05-09T18:31:01.593Z,36.30
2023-05-09T18:36:05.336Z,36.08
2023-05-09T18:41:09.759Z,36.48
2023-05-09T18:46:17.924Z,36.33
2023-05-09T18:51:21.823Z,36.46
2023-05-09T18:56:25.863Z,36.90
2023-05-09T19:01:28.960Z,36.89
2023-05-09T19:06:32.708Z,36.51
2023-05-09T19:11:36.184Z,36.28
2023-05-09T19:16:39.210Z,35.98
2023-05-09T19:21:42.273Z,35.63
2023-05-09T19:26:45.243Z,36.09
2023-05-09T19:31:48.191Z,36.12
2023-05-09T19:36:51.188Z,35.92
2023-05-09T19:41:54.599Z,36.30
2023-05-09T19:46:58.827Z,36.37
2023-05-09T19:52:01.816Z,36.58
2023-05-09T19:57:06.700Z,36.24
2023-05-09T20:02:10.171Z,36.47
2023-05-09T20:07:13.157Z,36.57
2023-05-09T20:12:16.260Z,36.35
2023-05-09T20:17:19.261Z,36.52
2023-05-09T20:22:22.272Z,36.44
2023-05-09T20:27:25.319Z,36.59
2023-05-09T20:32:28.533Z,36.65
2023-05-09T20:37:31.575Z,36.42
2023-05-09T20:42:34.617Z,37.09
2023-05-09T20:47:37.721Z,36.92
2023-05-09T20:52:40.800Z,37.14
2023-05-09T20:57:43.787Z,37.10
2023-05-09T21:02:46.961Z,36.76
2023-05-09T21:07:50.112Z,36.86
2023-05-09T21:12:53.166Z,37.28
2023-05-09T21:17:56.286Z,37.04
2023-05-09T21:22:59.337Z,37.64
2023-05-09T21:28:02.316Z,37.18
2023-05-09T21:33:05.320Z,37.18
2023-05-09T21:38:08.376Z,37.70
2023-05-09T21:43:11.316Z,38.22
2023-05-09T21:48:14.320Z,38.25
2023-05-09T21:53:17.254Z,37.74
2023-05-09T21:58:20.351Z,38.10
2023-05-09T22:03:23.804Z,38.12
2023-05-09T22:08:26.869Z,38.28
2023-05-09T22:13:29.931Z,38.44
2023-05-09T22:18:32.956Z,38.18
2023-05-09T22:23:36.042Z,38.48
2023-05-09T22:28:42.047Z,38.07
2023-05-09T22:33:45.066Z,38.43
2023-05-09T22:38:47.989Z,38.61
2023-05-09T22:43:51.305Z,38.31
2023-05-09T22:48:54.264Z,38.77
2023-05-09T22:53:57.189Z,39.23
2023-05-09T22:59:00.266Z,39.83
2023-05-09T23:04:03.276Z,39.71
2023-05-09T23:09:06.241Z,39.59
2023-05-09T23:14:09.267Z,39.79
2023-05-09T23:19:12.317Z,39.88
2023-05-09T23:24:15.347Z,39.73
2023-05-09T23:29:18.373Z,39.39
2023-05-09T23:34:21.416Z,40.08
2023-05-09T23:39:24.500Z,39.68
2023-05-09T23:44:27.655Z,40.58
2023-05-09T23:49:30.700Z,40.70
2023-05-09T23:54:33.637Z,40.53
2023-05-09T23:59:36.578Z,40.35
